RJSARJCB

Guest
Details From RJSA - AOMORI
To RJCB - OBIHIRO
Flight Number -
Tags generated
Created
Modified
Stats Distance 166 nm / 307 km
Max Altitude 19,800 ft / 6,035 m
Waypoints 3
Social Downloads 0
Likes 0
Share VATSIM

Download

Looking for another format? Having issues loading an existing format? Contact us
Advertisement - Login to hide

Notes

Basic altitude profile: - Ascent Rate: 2500ft/min - Ascent Speed: 250kts - Cruise Altitude: 35000ft - Cruise Speed: 420kts - Descent Rate: 1500ft/min - Descent Speed: 250kts Options: - Use NATs: yes - Use PACOTS: yes - Use low airways: yes - Use high airways: yes

Route

RJSA LARCH RJCB

ID Type Via Altitude Latitude Longitude Leg Dist Tot Dist Heading (true) Name
O RJSA APT - 0 ft / 0 m 40.73327˚ 140.68859˚ - 0 nm - AOMORI
LARCH FIX - 19,800 ft / 6,035 m 41.50318˚ 141.79853˚ 68 nm 68 nm 47° / 48° -
O RJCB APT - 0 ft / 0 m 42.73360˚ 143.21743˚ 97 nm 165 nm 40° / 41° OBIHIRO

Altitude Profile

Advertisement - Login to hide

Weather


0- 5 10 15 20 25 30 35+ Temperature / ° C

Clouds and Precipitation
Forecast for 2018-05-26 06:00 UTC. Updated 3 hours ago

Ground ~20,000 ft ~40,000 ft Winds

RJSA

Details ICAO RJSA (AOJ)
Name AOMORI
Region Japan
Timezone Asia/Tokyo (UTC+9.0)
Stats Elevation 664 ft / 202 m (AMSL)
Location 40.733272° 140.688594°
Runways 1
Magnetic Variation 8.960° W

METAR

RJSA 260800Z 30006KT 250V020 9999 FEW040 16/05 Q1011

Decode

TAF

TAF RJSA 260505Z 2606/2712 27008KT 9999 FEW030 BECMG 2621/2700 02008KT

Decode

Departure Runways

ID Width Length Bearing (true) Bearing (mag) Surface Threshold Offset Overrun Length
06 200 ft / 61 m 9,838 ft / 2,999 m 51.79° 60.75° Asphalt 0 ft / 0 m 200 ft / 61 m
24 200 ft / 61 m 9,838 ft / 2,999 m 231.81° 240.77° Asphalt 0 ft / 0 m 200 ft / 61 m

RJCB

Details ICAO RJCB (OBO)
Name OBIHIRO
Region Japan
Timezone Asia/Tokyo (UTC+9.0)
Stats Elevation 505 ft / 154 m (AMSL)
Location 42.733601° 143.217426°
Runways 1
Magnetic Variation 9.090° W

METAR

RJCB 260800Z 34008KT 290V010 9999 FEW050 17/05 Q1008

Decode

TAF

TAF TAF RJCB 260506Z 2606/2712 33006KT 9999 FEW040 BECMG 2621/2700 14008KT

Decode

Destination Runways

ID Width Length Bearing (true) Bearing (mag) Surface Threshold Offset Overrun Length
17 150 ft / 46 m 8,209 ft / 2,502 m 159.37° 168.46° Asphalt 0 ft / 0 m 200 ft / 61 m
35 150 ft / 46 m 8,209 ft / 2,502 m 339.37° 348.46° Asphalt 0 ft / 0 m 200 ft / 61 m

Approach Navaids

Runway Type Ident Frequency Range Bearing (true) Bearing (mag) Slope Elevation
35 Localiser IOB 111.70 MHz 18 nm / 33 km 339.37° 348.46° - 505 ft / 154 m (AMSL)
35 Glidescope IOB 111.70 MHz 10 nm / 19 km 339.37° 348.46° 3.00° 505 ft / 154 m (AMSL)